< < Back
Terminal Aerodrome Forecast


Current Version              Previous Versions:   1  2  3  4  5  6  7  8  9  

Terminal Aerodrome Forecast

711
FTUS44 KBMX 260520
TAFMGM
TAF
KMGM 260520Z 2606/2706 17002KT P6SM SCT250
     FM261200 17005KT P6SM FEW250=

Latest METAR

626
SAUS80 KWBC 260600 RRB
MTRMGM
METAR KMGM 260553Z AUTO 20003KT 10SM CLR 22/18 A3014 RMK AO2 SLP203
T02220178 10289 20206 403170161 56008


USA.gov is the U.S. government's official web portal to all federal, state and local government web resources and services.